Time;durP1;ratioP1;P1;durP2;ratioP2;P2;SDS_P1;SDS_P2;PMS_P1;PMS_P2;Temp;Humidity;BMP_temperature;BMP_pressure;BME280_temperature;BME280_humidity;BME280_pressure;Samples;Min_cycle;Max_cycle;Signal;HPM_P1;HPM_P2
2021/07/13 00:00:30;;;;;;;4.65;4.25;;;;;;;17.23;92.36;95005.41;4980976;28;20235;-79
2021/07/13 00:02:56;;;;;;;6.28;4.70;;;;;;;17.26;92.00;95012.88;4959453;28;20207;-79
2021/07/13 00:05:21;;;;;;;5.22;4.72;;;;;;;17.30;91.92;94988.84;4959968;28;20204;-79
2021/07/13 00:07:48;;;;;;;5.38;4.25;;;;;;;17.31;91.72;94970.28;4976269;28;20169;-79
2021/07/13 00:10:15;;;;;;;8.63;5.20;;;;;;;17.30;92.30;94965.22;4975680;28;20188;-79
2021/07/13 00:12:41;;;;;;;6.80;6.30;;;;;;;17.26;92.72;94967.47;4959341;28;20198;-79
2021/07/13 00:15:17;;;;;;;26.13;7.35;;;;;;;17.24;93.17;94988.66;4957359;28;20207;-78
2021/07/13 00:17:44;;;;;;;6.07;5.47;;;;;;;17.27;92.82;95001.38;4982058;28;20204;-78
2021/07/13 00:20:11;;;;;;;8.50;6.70;;;;;;;17.25;93.07;95000.78;4978181;28;20189;-78
2021/07/13 00:22:36;;;;;;;6.93;6.43;;;;;;;17.22;93.27;95001.16;4974356;28;20712;-78
2021/07/13 00:25:03;;;;;;;6.15;5.65;;;;;;;17.30;93.19;94996.72;4958857;28;20236;-78
2021/07/13 00:27:29;;;;;;;6.57;6.00;;;;;;;17.30;93.10;94996.72;4974788;28;20649;-78
2021/07/13 00:29:54;;;;;;;11.13;5.82;;;;;;;17.32;93.24;94992.91;4954706;28;20272;-78
2021/07/13 00:32:19;;;;;;;6.63;6.10;;;;;;;17.22;93.09;94984.59;4974259;28;20203;-79
2021/07/13 00:34:45;;;;;;;5.95;5.03;;;;;;;17.20;92.84;94971.69;4958394;28;20172;-77
2021/07/13 00:37:10;;;;;;;4.95;4.55;;;;;;;17.25;92.60;94966.66;4958571;28;20187;-78
2021/07/13 00:39:35;;;;;;;4.72;4.32;;;;;;;17.20;92.47;94955.16;4975841;28;20216;-79
2021/07/13 00:42:01;;;;;;;5.25;4.35;;;;;;;17.14;92.74;94954.16;4957060;28;20279;-78
2021/07/13 00:44:26;;;;;;;4.95;4.55;;;;;;;17.02;92.94;94958.38;4955302;28;20205;-78
2021/07/13 00:46:52;;;;;;;5.05;4.60;;;;;;;17.04;93.29;94958.97;4957884;28;20180;-78
2021/07/13 00:49:18;;;;;;;3.58;3.28;;;;;;;17.01;92.69;94955.97;4958628;28;20235;-79
2021/07/13 00:51:45;;;;;;;2.90;2.67;;;;;;;16.79;92.23;94945.66;4973402;28;20192;-78
2021/07/13 00:54:11;;;;;;;4.07;3.38;;;;;;;16.88;92.70;94947.09;4974519;28;20207;-78
2021/07/13 00:56:41;;;;;;;4.63;4.20;;;;;;;16.85;93.06;94952.72;4958780;28;20179;-79
2021/07/13 00:59:07;;;;;;;4.45;4.10;;;;;;;16.67;93.83;94945.41;4974208;28;20259;-79
2021/07/13 01:01:33;;;;;;;4.57;4.18;;;;;;;16.62;93.49;94944.41;4956484;28;20376;-78
2021/07/13 01:04:01;;;;;;;6.03;5.40;;;;;;;16.61;94.06;94948.03;4974461;28;20291;-79
2021/07/13 01:06:33;;;;;;;5.55;5.10;;;;;;;16.63;94.29;94949.44;4972979;28;20188;-78
2021/07/13 01:09:13;;;;;;;6.80;5.75;;;;;;;16.62;93.88;94963.56;4974102;28;20192;-78
2021/07/13 01:11:48;;;;;;;4.55;4.15;;;;;;;16.67;93.49;94955.09;4957886;28;20172;-79
2021/07/13 01:14:22;;;;;;;5.10;4.60;;;;;;;16.63;93.49;94967.00;4972872;28;20200;-79
2021/07/13 01:16:54;;;;;;;4.07;3.78;;;;;;;16.62;93.07;94966.19;4954821;29;20174;-78
2021/07/13 01:19:33;;;;;;;4.30;4.00;;;;;;;16.57;93.44;94965.16;4954618;29;20173;-78
2021/07/13 01:22:07;;;;;;;5.53;5.03;;;;;;;16.58;93.55;94964.94;4955489;29;20176;-79
2021/07/13 01:25:12;;;;;;;5.93;5.32;;;;;;;16.58;93.73;94959.72;4969629;28;20210;-78
2021/07/13 01:27:46;;;;;;;6.20;5.25;;;;;;;16.56;93.78;94955.69;4970194;28;20189;-79
2021/07/13 01:30:25;;;;;;;6.13;5.63;;;;;;;16.56;93.59;94969.59;4986782;28;20239;-79
2021/07/13 01:32:55;;;;;;;7.47;6.00;;;;;;;16.59;94.13;94979.66;4969697;28;20255;-77
2021/07/13 01:35:35;;;;;;;5.90;5.40;;;;;;;16.65;93.95;94991.19;4972512;28;20212;-78
2021/07/13 01:38:03;;;;;;;5.10;4.70;;;;;;;16.66;93.76;95008.53;4975104;28;20284;-79
2021/07/13 01:40:30;;;;;;;5.28;4.80;;;;;;;16.66;93.36;95017.19;4973842;28;20184;-77
2021/07/13 01:42:57;;;;;;;6.93;4.75;;;;;;;16.70;93.28;95021.09;4957248;28;20585;-80
2021/07/13 01:45:22;;;;;;;5.22;4.60;;;;;;;16.77;92.93;95017.66;4947283;28;20213;-79
2021/07/13 01:47:48;;;;;;;5.50;4.18;;;;;;;16.82;93.03;95004.75;4953367;28;20666;-78
2021/07/13 01:50:14;;;;;;;7.03;4.05;;;;;;;16.82;92.55;94989.84;4973288;28;20176;-79
2021/07/13 01:52:40;;;;;;;5.10;3.95;;;;;;;16.81;92.12;94987.41;4972816;28;20213;-79
2021/07/13 01:55:06;;;;;;;4.90;3.38;;;;;;;16.78;91.94;95008.78;4972320;28;20181;-79
2021/07/13 01:57:32;;;;;;;4.97;3.05;;;;;;;16.68;92.08;95020.44;4956320;28;20212;-79
2021/07/13 01:59:59;;;;;;;3.65;3.35;;;;;;;16.70;92.32;95030.75;4973242;28;20181;-78
2021/07/13 02:02:27;;;;;;;3.67;3.38;;;;;;;16.64;92.96;95034.13;4956841;28;20235;-78
2021/07/13 02:04:53;;;;;;;3.47;3.17;;;;;;;16.58;93.20;95034.91;4973181;28;20710;-79
2021/07/13 02:07:19;;;;;;;4.32;3.60;;;;;;;16.63;93.46;95028.09;4971163;28;20192;-79
2021/07/13 02:09:44;;;;;;;3.08;2.83;;;;;;;16.72;92.86;95017.44;4962630;28;20198;-79
2021/07/13 02:12:10;;;;;;;4.05;2.70;;;;;;;16.66;92.91;95017.19;4936179;29;20765;-79
2021/07/13 02:14:36;;;;;;;3.85;3.15;;;;;;;16.63;92.66;95030.72;4951733;29;20165;-78
2021/07/13 02:17:01;;;;;;;2.65;2.45;;;;;;;16.65;92.40;95028.69;4944117;28;20187;-78
2021/07/13 02:19:27;;;;;;;2.88;2.63;;;;;;;16.62;91.83;95021.22;4971199;28;20184;-78
2021/07/13 02:21:53;;;;;;;3.08;2.63;;;;;;;16.55;92.35;95009.91;4971112;28;20560;-79
2021/07/13 02:24:18;;;;;;;3.15;2.85;;;;;;;16.58;92.22;95004.25;4972489;28;20201;-79
2021/07/13 02:26:49;;;;;;;3.40;2.88;;;;;;;16.57;92.39;94994.78;4969486;28;20176;-77
2021/07/13 02:29:20;;;;;;;3.20;2.90;;;;;;;16.62;92.24;94984.53;4972623;28;20176;-79
2021/07/13 02:31:55;;;;;;;4.03;2.88;;;;;;;16.59;92.39;94989.34;4956995;28;20173;-78
2021/07/13 02:34:21;;;;;;;4.20;3.08;;;;;;;16.61;92.02;94995.22;4959054;28;20204;-78
2021/07/13 02:36:49;;;;;;;2.80;2.58;;;;;;;16.55;91.98;94999.44;4958604;28;20544;-78
2021/07/13 02:39:15;;;;;;;3.30;3.00;;;;;;;16.46;91.67;94994.56;4973890;28;20184;-78
2021/07/13 02:41:43;;;;;;;3.53;2.97;;;;;;;16.41;91.68;94988.09;4974207;28;20263;-77
2021/07/13 02:44:09;;;;;;;3.58;3.28;;;;;;;16.42;92.29;94999.38;4974249;28;20262;-78
2021/07/13 02:46:41;;;;;;;3.10;2.80;;;;;;;16.42;92.78;94999.38;4974294;28;20267;-78
2021/07/13 02:49:08;;;;;;;3.13;2.70;;;;;;;16.41;92.14;94992.53;4972662;28;20265;-78
2021/07/13 02:51:34;;;;;;;3.28;2.38;;;;;;;16.40;92.18;94985.66;4957872;28;20236;-77
2021/07/13 02:54:01;;;;;;;3.90;2.75;;;;;;;16.23;93.05;94977.34;4974703;28;20192;-78
2021/07/13 02:56:26;;;;;;;3.63;3.10;;;;;;;16.27;93.20;94969.91;4958476;28;20208;-78
2021/07/13 02:58:55;;;;;;;3.38;2.97;;;;;;;16.36;92.81;94960.88;4973136;28;20191;-77
2021/07/13 03:01:21;;;;;;;4.13;3.40;;;;;;;16.38;93.05;94946.56;4970496;28;20192;-78
2021/07/13 03:03:47;;;;;;;3.47;3.17;;;;;;;16.39;92.86;94952.63;4937663;29;20201;-77
2021/07/13 03:06:15;;;;;;;3.88;3.38;;;;;;;16.26;93.28;94944.72;4956572;29;20181;-77
2021/07/13 03:08:40;;;;;;;5.72;4.05;;;;;;;16.21;93.96;94945.31;4938023;29;20181;-78
2021/07/13 03:11:06;;;;;;;4.45;4.00;;;;;;;16.16;94.33;94937.22;4970469;28;20199;-78
2021/07/13 03:13:32;;;;;;;5.47;4.97;;;;;;;16.15;94.61;94925.13;4976923;28;20228;-78
2021/07/13 03:15:57;;;;;;;6.35;5.40;;;;;;;16.25;94.20;94909.03;4977439;28;20173;-77
2021/07/13 03:18:23;;;;;;;5.32;4.90;;;;;;;16.24;94.23;94905.59;4959855;28;20208;-78
2021/07/13 03:20:50;;;;;;;15.20;6.78;;;;;;;16.17;94.55;94888.25;4976261;28;20192;-79
2021/07/13 03:23:17;;;;;;;6.53;5.93;;;;;;;16.19;94.58;94884.44;4957457;29;20627;-78
2021/07/13 03:25:44;;;;;;;6.88;6.20;;;;;;;16.14;94.77;94871.94;4957355;29;20210;-78
2021/07/13 03:28:11;;;;;;;6.68;6.07;;;;;;;16.13;94.92;94870.31;4957394;29;20184;-78
2021/07/13 03:30:37;;;;;;;6.80;6.20;;;;;;;16.19;95.00;94862.69;4957486;28;20513;-78
2021/07/13 03:33:03;;;;;;;6.60;5.97;;;;;;;16.21;94.67;94848.38;4976642;28;20215;-78
2021/07/13 03:35:30;;;;;;;6.45;5.85;;;;;;;16.24;94.25;94842.72;4961336;28;20197;-78
2021/07/13 03:37:56;;;;;;;6.38;5.63;;;;;;;16.27;94.24;94839.72;4977583;28;20200;-78
2021/07/13 03:40:23;;;;;;;7.60;6.05;;;;;;;16.29;94.32;94831.66;4977513;28;20191;-77
2021/07/13 03:42:50;;;;;;;6.82;5.43;;;;;;;16.29;93.67;94836.91;4975457;28;20304;-78
2021/07/13 03:45:16;;;;;;;6.38;5.15;;;;;;;16.34;93.57;94831.84;4977136;28;20200;-78
2021/07/13 03:47:49;;;;;;;5.88;5.18;;;;;;;16.30;93.58;94828.03;4976847;28;20181;-77
2021/07/13 03:50:15;;;;;;;6.40;5.85;;;;;;;16.27;93.54;94831.88;4960612;28;20177;-76
2021/07/13 03:52:41;;;;;;;7.53;6.50;;;;;;;16.24;93.96;94819.16;4976330;28;20618;-76
2021/07/13 03:55:06;;;;;;;96.53;9.68;;;;;;;16.21;93.55;94814.31;4975154;28;20184;-76
2021/07/13 03:57:32;;;;;;;18.23;7.35;;;;;;;16.01;93.84;94816.94;4976285;28;20173;-78
2021/07/13 03:59:57;;;;;;;64.22;9.68;;;;;;;15.99;94.85;94818.94;4977061;28;20637;-77
2021/07/13 04:02:22;;;;;;;192.13;15.13;;;;;;;16.00;95.09;94817.94;4975558;28;20251;-78
2021/07/13 04:04:48;;;;;;;176.57;17.05;;;;;;;16.01;95.25;94819.53;4974815;28;20216;-78
2021/07/13 04:07:13;;;;;;;483.33;28.33;;;;;;;15.93;96.10;94819.72;4972524;28;20208;-76
2021/07/13 04:09:40;;;;;;;314.52;21.10;;;;;;;15.90;96.50;94825.34;4956978;29;20653;-77
2021/07/13 04:12:05;;;;;;;144.90;15.07;;;;;;;15.84;96.69;94829.56;4958085;28;20240;-77
2021/07/13 04:14:31;;;;;;;22.15;9.65;;;;;;;15.80;97.21;94827.53;4966078;28;20271;-78
2021/07/13 04:16:56;;;;;;;27.73;8.95;;;;;;;15.88;96.99;94829.16;4975126;28;20196;-77
2021/07/13 04:19:21;;;;;;;8.75;7.95;;;;;;;15.89;96.87;94826.34;4975266;28;20184;-76
2021/07/13 04:21:46;;;;;;;10.32;9.05;;;;;;;15.96;97.40;94826.38;4957689;28;20184;-78
2021/07/13 04:24:12;;;;;;;10.85;9.10;;;;;;;15.99;96.94;94837.28;4957508;28;20200;-78
2021/07/13 04:26:37;;;;;;;9.25;8.35;;;;;;;16.02;96.66;94831.63;4971663;28;20232;-78
2021/07/13 04:29:02;;;;;;;8.55;7.75;;;;;;;16.14;96.40;94839.69;4956802;28;20181;-78
2021/07/13 04:31:28;;;;;;;7.75;7.05;;;;;;;16.21;95.74;94829.25;4976078;28;20243;-78
2021/07/13 04:33:53;;;;;;;7.53;6.78;;;;;;;16.22;94.78;94846.56;4974401;28;20196;-77
2021/07/13 04:36:18;;;;;;;7.03;6.38;;;;;;;16.30;94.94;94838.53;4973748;28;20234;-77
2021/07/13 04:38:44;;;;;;;7.75;6.97;;;;;;;16.33;94.26;94830.25;4954280;28;20192;-77
2021/07/13 04:41:09;;;;;;;8.35;7.55;;;;;;;16.31;94.23;94840.13;4973481;28;20588;-76
2021/07/13 04:43:34;;;;;;;7.68;6.97;;;;;;;16.45;93.88;94828.66;4958255;28;20227;-77
2021/07/13 04:46:00;;;;;;;7.88;7.07;;;;;;;16.41;94.02;94832.69;4974940;28;20212;-78
2021/07/13 04:48:25;;;;;;;6.55;5.65;;;;;;;16.41;93.59;94832.69;4958267;28;20179;-77
2021/07/13 04:50:50;;;;;;;8.82;7.63;;;;;;;16.38;93.43;94840.94;4975605;28;20180;-77
2021/07/13 04:53:16;;;;;;;7.28;6.50;;;;;;;16.39;93.46;94843.38;4974266;28;20215;-78
2021/07/13 04:55:41;;;;;;;8.27;7.47;;;;;;;16.17;93.87;94841.09;4958001;28;20176;-78
2021/07/13 04:58:06;;;;;;;8.82;7.93;;;;;;;16.15;94.38;94842.13;4957132;28;20196;-78
2021/07/13 05:00:32;;;;;;;8.27;7.50;;;;;;;16.10;94.64;94848.97;4973619;28;20192;-78
2021/07/13 05:02:57;;;;;;;8.23;7.50;;;;;;;16.20;94.69;94854.63;4975046;28;20204;-77
2021/07/13 05:05:22;;;;;;;12.05;7.93;;;;;;;16.29;94.85;94850.81;4973866;28;20215;-78
2021/07/13 05:07:48;;;;;;;9.18;7.75;;;;;;;16.35;94.42;94846.59;4953554;29;20216;-77
2021/07/13 05:10:15;;;;;;;8.98;8.07;;;;;;;16.42;94.18;94855.25;4973654;28;20192;-77
2021/07/13 05:12:42;;;;;;;8.70;7.90;;;;;;;16.33;93.77;94853.84;4957426;28;20852;-77
2021/07/13 05:15:09;;;;;;;8.27;7.57;;;;;;;16.33;93.48;94845.97;4973742;28;20184;-76
2021/07/13 05:17:36;;;;;;;9.63;8.63;;;;;;;16.35;93.62;94841.34;4955984;28;20331;-78
2021/07/13 05:20:03;;;;;;;9.48;8.50;;;;;;;16.34;93.58;94845.78;4973463;28;20188;-77
2021/07/13 05:22:28;;;;;;;9.10;8.18;;;;;;;16.42;93.48;94852.63;4973290;28;20203;-77
2021/07/13 05:24:54;;;;;;;9.38;8.48;;;;;;;16.48;93.66;94856.28;4957530;28;20676;-77
2021/07/13 05:27:19;;;;;;;8.38;7.43;;;;;;;16.54;93.54;94853.66;4973372;28;20185;-78
2021/07/13 05:29:44;;;;;;;7.78;6.97;;;;;;;16.61;93.27;94851.06;4971257;28;20193;-78
2021/07/13 05:32:10;;;;;;;7.63;6.82;;;;;;;16.67;93.04;94853.66;4974501;28;20181;-77
2021/07/13 05:34:35;;;;;;;6.95;6.05;;;;;;;16.69;92.69;94856.09;4974688;28;20173;-77
2021/07/13 05:37:00;;;;;;;6.90;5.75;;;;;;;16.76;92.39;94851.66;4964073;28;20188;-77
2021/07/13 05:39:26;;;;;;;6.80;5.38;;;;;;;16.75;92.09;94851.88;4962926;28;20275;-75
2021/07/13 05:41:51;;;;;;;6.07;5.50;;;;;;;16.76;92.08;94848.25;4970595;28;20188;-77
2021/07/13 05:44:17;;;;;;;5.88;5.22;;;;;;;16.76;91.75;94840.38;4972590;28;20204;-76
2021/07/13 05:46:42;;;;;;;7.10;5.35;;;;;;;16.74;91.42;94837.97;4972798;28;20633;-77
2021/07/13 05:49:07;;;;;;;6.07;5.47;;;;;;;16.76;91.47;94840.38;4971565;28;20247;-76
2021/07/13 05:51:33;;;;;;;7.07;5.38;;;;;;;16.76;91.64;94835.94;4971836;28;20185;-75
2021/07/13 05:53:58;;;;;;;5.82;4.90;;;;;;;16.78;91.35;94841.78;4972460;28;20199;-78
2021/07/13 05:56:24;;;;;;;5.10;4.60;;;;;;;16.78;91.06;94840.97;4956714;28;20180;-78
2021/07/13 05:58:49;;;;;;;7.85;5.10;;;;;;;16.84;90.38;94840.97;4970882;28;20196;-75
2021/07/13 06:01:15;;;;;;;7.93;5.35;;;;;;;16.86;90.48;94846.00;4971922;28;20180;-74
2021/07/13 06:03:40;;;;;;;5.50;4.82;;;;;;;16.86;90.84;94851.25;4971932;28;20287;-75
2021/07/13 06:06:05;;;;;;;9.18;5.78;;;;;;;16.82;90.47;94852.69;4973961;28;20208;-76
2021/07/13 06:08:30;;;;;;;6.75;5.75;;;;;;;16.77;90.71;94858.53;4973053;28;20268;-77
2021/07/13 06:10:56;;;;;;;6.65;5.95;;;;;;;16.77;90.85;94861.13;4971261;28;20649;-78
2021/07/13 06:13:21;;;;;;;6.07;5.50;;;;;;;16.69;90.70;94858.72;4973041;28;20199;-77
2021/07/13 06:15:47;;;;;;;6.07;5.47;;;;;;;16.70;90.82;94860.34;4972236;28;20172;-78
2021/07/13 06:18:18;;;;;;;5.90;5.28;;;;;;;16.69;90.91;94863.97;4972315;28;20223;-76
2021/07/13 06:20:44;;;;;;;8.23;5.45;;;;;;;16.66;90.73;94865.16;4971046;28;20648;-76
2021/07/13 06:23:09;;;;;;;5.53;4.95;;;;;;;16.66;90.86;94865.16;4971626;28;20266;-75
2021/07/13 06:25:35;;;;;;;6.97;4.60;;;;;;;16.64;90.69;94867.16;4971587;28;20304;-76
2021/07/13 06:28:00;;;;;;;4.78;4.38;;;;;;;16.66;90.78;94870.41;4972915;28;20203;-76
2021/07/13 06:30:25;;;;;;;6.70;4.03;;;;;;;16.69;90.57;94874.44;4972049;28;20197;-76
2021/07/13 06:32:51;;;;;;;6.22;4.10;;;;;;;16.73;90.84;94883.53;4974499;28;20219;-76
2021/07/13 06:35:16;;;;;;;5.40;4.10;;;;;;;16.73;90.27;94880.91;4952410;29;20185;-77
2021/07/13 06:37:43;;;;;;;4.82;3.40;;;;;;;16.70;90.37;94882.13;4968460;28;20668;-76
2021/07/13 06:40:09;;;;;;;6.05;3.80;;;;;;;16.67;90.09;94879.88;4968389;28;20712;-77
2021/07/13 06:42:34;;;;;;;5.15;3.78;;;;;;;16.62;89.67;94877.06;4969355;28;20212;-76
2021/07/13 06:44:59;;;;;;;3.70;2.88;;;;;;;16.63;89.97;94880.47;4971273;28;20205;-77
2021/07/13 06:47:25;;;;;;;3.83;2.63;;;;;;;16.63;89.61;94883.91;4972080;28;20411;-77
2021/07/13 06:49:50;;;;;;;3.50;3.13;;;;;;;16.61;89.50;94879.88;4955597;28;20220;-76
2021/07/13 06:52:16;;;;;;;4.07;3.00;;;;;;;16.53;89.95;94891.38;4953144;28;20197;-76
2021/07/13 06:54:41;;;;;;;3.03;2.72;;;;;;;16.48;90.25;94888.53;4970991;28;20216;-78
2021/07/13 06:57:06;;;;;;;4.38;3.40;;;;;;;16.47;89.95;94875.63;4971552;28;20640;-77
2021/07/13 06:59:34;;;;;;;3.92;3.13;;;;;;;16.48;90.35;94872.00;4955260;28;20244;-77
2021/07/13 07:01:59;;;;;;;4.15;3.13;;;;;;;16.47;90.27;94871.19;4970589;28;20234;-77
2021/07/13 07:04:24;;;;;;;4.30;3.25;;;;;;;16.49;90.25;94874.41;4970451;28;20196;-78
2021/07/13 07:06:50;;;;;;;3.47;2.85;;;;;;;16.43;90.27;94885.69;4971589;28;20176;-77
2021/07/13 07:09:15;;;;;;;3.75;2.40;;;;;;;16.40;90.47;94891.34;4971703;28;20656;-77
2021/07/13 07:11:41;;;;;;;3.45;2.50;;;;;;;16.35;90.50;94893.75;4971127;28;20212;-77
2021/07/13 07:14:06;;;;;;;8.30;2.95;;;;;;;16.30;90.60;94896.97;4970562;28;20283;-78
2021/07/13 07:16:31;;;;;;;3.45;3.08;;;;;;;16.35;90.87;94889.31;4972693;28;20744;-78
2021/07/13 07:18:56;;;;;;;3.35;3.05;;;;;;;16.32;91.02;94881.03;4955311;28;20204;-77
2021/07/13 07:21:22;;;;;;;3.20;2.90;;;;;;;16.35;90.63;94878.03;4971143;28;20200;-77
2021/07/13 07:23:47;;;;;;;3.17;2.92;;;;;;;16.34;90.66;94886.88;4953545;28;20204;-77
2021/07/13 07:26:12;;;;;;;3.05;2.33;;;;;;;16.29;90.96;94891.94;4971059;28;20173;-76
2021/07/13 07:28:38;;;;;;;3.17;2.70;;;;;;;16.27;91.20;94886.09;4972479;28;20205;-77
2021/07/13 07:31:03;;;;;;;5.88;2.75;;;;;;;16.25;91.38;94888.06;4971484;28;20181;-78
2021/07/13 07:33:29;;;;;;;2.88;2.63;;;;;;;16.25;91.56;94890.69;4951796;29;20212;-76
2021/07/13 07:35:54;;;;;;;2.38;1.75;;;;;;;16.28;90.86;94893.75;4966212;28;20212;-77
2021/07/13 07:38:19;;;;;;;3.85;2.20;;;;;;;16.26;90.94;94889.72;4972270;28;20181;-77
2021/07/13 07:40:45;;;;;;;2.83;2.55;;;;;;;16.34;90.71;94884.25;4972031;28;20548;-77
2021/07/13 07:43:11;;;;;;;2.05;1.95;;;;;;;16.38;90.66;94875.81;4970659;28;20212;-77
2021/07/13 07:45:36;;;;;;;1.70;1.50;;;;;;;16.47;90.70;94865.94;4970646;28;20220;-77
2021/07/13 07:48:03;;;;;;;4.05;1.40;;;;;;;16.48;90.41;94872.81;4968236;28;20185;-77
2021/07/13 07:50:28;;;;;;;2.15;1.45;;;;;;;16.48;90.53;94872.00;4952121;29;20189;-78
2021/07/13 07:52:54;;;;;;;1.50;1.30;;;;;;;16.43;89.92;94876.03;4952998;29;20197;-77
2021/07/13 07:55:21;;;;;;;2.47;1.38;;;;;;;16.42;89.94;94873.59;4940289;28;20195;-74
2021/07/13 07:57:48;;;;;;;1.10;0.80;;;;;;;16.44;90.01;94882.09;4972155;28;20621;-77
2021/07/13 08:00:14;;;;;;;1.27;1.10;;;;;;;16.45;89.30;94883.69;4975660;28;20176;-77
2021/07/13 08:02:40;;;;;;;1.05;0.80;;;;;;;16.33;88.70;94874.78;4989809;28;20702;-77
2021/07/13 08:05:07;;;;;;;0.60;0.60;;;;;;;16.32;88.87;94884.47;4958440;28;20216;-77
2021/07/13 08:07:33;;;;;;;1.50;0.50;;;;;;;16.09;88.58;94876.16;4959463;28;20188;-76
2021/07/13 08:09:58;;;;;;;0.65;0.40;;;;;;;16.06;88.42;94885.22;4974157;28;20187;-77
2021/07/13 08:12:24;;;;;;;0.35;0.20;;;;;;;16.09;88.11;94884.84;4974323;28;20197;-77
2021/07/13 08:14:49;;;;;;;0.50;0.32;;;;;;;16.11;88.16;94892.50;4958731;28;20228;-78
2021/07/13 08:17:15;;;;;;;0.30;0.30;;;;;;;16.00;88.46;94906.97;4987508;28;20185;-78
2021/07/13 08:19:40;;;;;;;0.43;0.40;;;;;;;15.93;88.54;94908.75;4971652;28;20181;-80
2021/07/13 08:22:10;;;;;;;0.30;0.30;;;;;;;15.85;87.81;94906.31;4956950;29;20181;-79
2021/07/13 08:24:36;;;;;;;0.30;0.30;;;;;;;15.85;88.63;94914.16;4955865;29;20241;-79
2021/07/13 08:27:04;;;;;;;0.25;0.20;;;;;;;15.81;87.20;94905.06;4971828;28;20753;-78
2021/07/13 08:29:30;;;;;;;0.28;0.28;;;;;;;15.80;86.97;94906.88;4970612;28;20220;-79
2021/07/13 08:31:57;;;;;;;0.30;0.20;;;;;;;15.82;87.15;94899.66;4975234;28;20219;-78
2021/07/13 08:34:26;;;;;;;1.85;0.20;;;;;;;15.88;87.05;94887.56;4974252;28;20271;-77
2021/07/13 08:36:52;;;;;;;0.25;0.17;;;;;;;15.91;87.54;94889.00;4958610;28;20224;-77
2021/07/13 08:39:17;;;;;;;0.20;0.15;;;;;;;16.06;85.72;94885.22;4956064;28;20640;-78
2021/07/13 08:41:44;;;;;;;0.10;0.10;;;;;;;16.24;85.34;94889.09;4974101;28;20715;-75
2021/07/13 08:44:09;;;;;;;1.17;0.13;;;;;;;16.35;84.91;94888.53;4973992;28;20254;-78
2021/07/13 08:46:38;;;;;;;0.10;0.10;;;;;;;16.26;83.68;94889.72;4957765;28;20185;-75
2021/07/13 08:49:04;;;;;;;0.10;0.05;;;;;;;16.05;83.41;94898.50;4956548;28;20239;-78
2021/07/13 08:51:29;;;;;;;0.40;0.10;;;;;;;16.12;83.57;94905.38;4970137;28;20193;-77
2021/07/13 08:53:55;;;;;;;0.10;0.10;;;;;;;16.04;82.82;94908.19;4953950;29;20252;-75
2021/07/13 08:56:20;;;;;;;0.43;0.17;;;;;;;15.98;83.00;94908.94;4938167;29;20181;-78
2021/07/13 08:58:45;;;;;;;0.50;0.20;;;;;;;15.97;82.52;94917.00;4955620;29;20180;-75
2021/07/13 09:01:11;;;;;;;1.33;0.10;;;;;;;15.93;82.24;94911.38;4984222;28;20320;-76
2021/07/13 09:03:54;;;;;;;1.20;0.20;;;;;;;15.88;82.10;94926.03;4973485;28;20224;-78
2021/07/13 09:06:21;;;;;;;0.10;0.10;;;;;;;15.61;81.33;94932.97;4956881;28;20560;-77
2021/07/13 09:08:46;;;;;;;0.10;0.10;;;;;;;15.42;81.59;94935.25;4973126;28;20188;-77
2021/07/13 09:11:13;;;;;;;0.20;0.20;;;;;;;15.19;82.16;94937.28;4972213;28;20231;-79
2021/07/13 09:13:46;;;;;;;0.45;0.20;;;;;;;14.97;83.09;94937.34;4974543;28;20200;-77
2021/07/13 09:16:19;;;;;;;0.10;0.10;;;;;;;15.08;81.97;94951.69;4973122;28;20173;-78
2021/07/13 09:18:55;;;;;;;0.10;0.10;;;;;;;14.85;82.89;94948.50;4957034;28;20262;-78
2021/07/13 09:21:33;;;;;;;0.43;0.20;;;;;;;14.68;82.95;94969.69;4971339;28;20258;-78
2021/07/13 09:24:20;;;;;;;0.75;0.20;;;;;;;14.75;83.22;94972.31;4957209;28;20200;-78
2021/07/13 09:26:57;;;;;;;0.20;0.20;;;;;;;14.59;83.53;94988.28;4958013;28;20553;-79
2021/07/13 09:29:42;;;;;;;0.40;0.28;;;;;;;14.58;83.72;94979.63;4973109;28;20723;-80
2021/07/13 09:32:31;;;;;;;0.10;0.10;;;;;;;14.60;82.52;94971.59;4971735;28;20184;-76
2021/07/13 09:35:13;;;;;;;0.53;0.27;;;;;;;14.64;83.26;94975.44;4972809;28;20177;-78
2021/07/13 09:37:43;;;;;;;0.85;0.30;;;;;;;14.72;83.31;94977.94;4972832;28;20259;-78
2021/07/13 09:40:16;;;;;;;0.30;0.30;;;;;;;14.60;83.99;94977.63;4972803;28;20215;-78
2021/07/13 09:42:44;;;;;;;0.20;0.20;;;;;;;14.68;83.68;94974.09;4971604;28;20291;-78
2021/07/13 09:45:25;;;;;;;0.10;0.10;;;;;;;14.42;84.79;94972.00;4971589;28;20193;-78
2021/07/13 09:47:55;;;;;;;0.10;0.10;;;;;;;14.47;84.19;94974.06;4972845;28;20176;-78
2021/07/13 09:50:44;;;;;;;0.20;0.20;;;;;;;14.45;83.67;94988.13;4972738;28;20176;-79
2021/07/13 09:53:16;;;;;;;0.60;0.20;;;;;;;14.16;84.10;94986.38;4971070;28;20232;-78
2021/07/13 09:55:43;;;;;;;0.10;0.10;;;;;;;14.42;84.19;94995.50;4956800;28;20188;-78
2021/07/13 09:58:12;;;;;;;0.20;0.20;;;;;;;14.35;83.25;94971.91;4956788;28;20268;-76
2021/07/13 10:00:39;;;;;;;0.33;0.10;;;;;;;14.65;82.92;94958.78;4972196;28;20528;-78
2021/07/13 10:03:04;;;;;;;0.97;0.10;;;;;;;14.65;82.34;94987.50;4956166;28;20259;-79
2021/07/13 10:05:31;;;;;;;0.50;0.20;;;;;;;14.56;83.19;94999.88;4943727;28;20212;-78
2021/07/13 10:07:57;;;;;;;0.25;0.15;;;;;;;14.56;83.30;94991.25;4956021;28;20192;-79
2021/07/13 10:10:24;;;;;;;0.25;0.10;;;;;;;14.53;83.06;94981.16;4956761;28;20184;-79
2021/07/13 10:12:53;;;;;;;0.10;0.10;;;;;;;14.52;81.26;94976.94;4972224;28;20200;-78
2021/07/13 10:15:19;;;;;;;0.20;0.20;;;;;;;14.65;82.23;94974.44;4971547;28;20181;-78
2021/07/13 10:17:44;;;;;;;0.10;0.10;;;;;;;14.60;80.62;94985.47;4988162;28;20190;-79
2021/07/13 10:20:11;;;;;;;0.10;0.10;;;;;;;14.65;80.81;94964.00;4972367;28;20191;-79
2021/07/13 10:22:44;;;;;;;0.30;0.15;;;;;;;14.82;81.36;94954.91;4956217;28;20205;-79
2021/07/13 10:25:10;;;;;;;0.10;0.10;;;;;;;14.87;80.10;94951.75;4971132;28;20196;-78
2021/07/13 10:27:37;;;;;;;0.10;0.10;;;;;;;14.89;79.84;94932.25;4955978;28;20190;-78
2021/07/13 10:30:26;;;;;;;0.10;0.10;;;;;;;15.01;80.13;94932.53;4956123;28;20188;-78
2021/07/13 10:32:52;;;;;;;0.20;0.10;;;;;;;15.17;78.10;94947.94;4980483;28;20217;-79
2021/07/13 10:35:25;;;;;;;0.40;0.20;;;;;;;15.34;78.86;94956.31;4989249;28;20187;-78
2021/07/13 10:37:59;;;;;;;0.28;0.20;;;;;;;15.73;78.30;94966.25;4956111;28;20189;-78
2021/07/13 10:40:24;;;;;;;0.10;0.10;;;;;;;15.81;77.52;94975.75;4953034;29;20323;-79
2021/07/13 10:42:50;;;;;;;0.57;0.20;;;;;;;15.92;77.49;94971.78;4954408;28;20248;-78
2021/07/13 10:45:36;;;;;;;0.15;0.15;;;;;;;16.02;75.99;94967.81;4948737;28;20231;-78
2021/07/13 10:48:20;;;;;;;0.10;0.10;;;;;;;16.03;75.37;94964.19;4952918;29;20228;-79
2021/07/13 10:50:51;;;;;;;0.20;0.10;;;;;;;16.07;76.21;94980.28;4952639;29;20181;-78
2021/07/13 10:53:35;;;;;;;0.15;0.10;;;;;;;15.90;76.36;94982.44;4952665;29;20200;-78
2021/07/13 10:56:17;;;;;;;0.20;0.20;;;;;;;16.35;76.07;94972.38;4946264;28;20192;-78
2021/07/13 10:58:52;;;;;;;0.20;0.20;;;;;;;16.51;76.07;94984.28;4952799;28;20756;-78
2021/07/13 11:01:33;;;;;;;0.30;0.30;;;;;;;16.65;74.18;94996.44;4952275;29;20719;-78
2021/07/13 11:03:59;;;;;;;1.05;0.40;;;;;;;16.54;74.50;95005.69;4952736;29;20201;-77
2021/07/13 11:06:53;;;;;;;0.40;0.40;;;;;;;16.30;75.45;95003.56;4944230;29;20208;-79
2021/07/13 11:09:23;;;;;;;0.30;0.30;;;;;;;15.95;75.00;94987.91;4971665;28;20184;-78
2021/07/13 11:11:49;;;;;;;0.40;0.35;;;;;;;15.86;75.39;94989.06;4973036;28;20183;-79
2021/07/13 11:14:15;;;;;;;0.93;0.40;;;;;;;15.70;75.95;94989.38;4955687;28;20192;-77
2021/07/13 11:16:42;;;;;;;0.40;0.40;;;;;;;15.64;76.05;95000.63;4970846;28;20207;-79
2021/07/13 11:19:16;;;;;;;0.98;0.50;;;;;;;15.43;76.95;95004.06;4968697;28;20182;-80
2021/07/13 11:21:47;;;;;;;0.45;0.30;;;;;;;15.27;76.85;95003.34;4952564;29;20184;-78
2021/07/13 11:24:15;;;;;;;1.27;0.50;;;;;;;15.37;77.00;95005.66;4952798;29;20205;-78
2021/07/13 11:26:52;;;;;;;0.40;0.20;;;;;;;15.41;77.31;95012.13;4956096;28;20208;-78
2021/07/13 11:29:21;;;;;;;0.30;0.30;;;;;;;15.26;77.91;95008.78;4968809;28;20184;-79
2021/07/13 11:31:57;;;;;;;0.30;0.30;;;;;;;15.55;78.14;95007.78;4955974;29;20185;-78
2021/07/13 11:34:23;;;;;;;0.73;0.30;;;;;;;15.58;77.33;95007.41;5000552;28;20273;-79